sensor_id;sensor_type;location;lat;lon;timestamp;pressure;altitude;pressure_sealevel;temperature;humidity
66547;BME280;53400;50.364;14.874;2024-01-15T00:02:01;96895.47;;;-1.34;97.31
66547;BME280;53400;50.364;14.874;2024-01-15T00:04:36;96891.78;;;-1.26;97.27
66547;BME280;53400;50.364;14.874;2024-01-15T00:07:03;96889.38;;;-1.28;97.24
66547;BME280;53400;50.364;14.874;2024-01-15T00:09:32;96888.69;;;-1.17;96.95
66547;BME280;53400;50.364;14.874;2024-01-15T00:12:06;96893.66;;;-1.33;97.54
66547;BME280;53400;50.364;14.874;2024-01-15T00:14:33;96879.13;;;-1.36;97.25
66547;BME280;53400;50.364;14.874;2024-01-15T00:16:59;96888.53;;;-1.22;97.02
66547;BME280;53400;50.364;14.874;2024-01-15T00:19:25;96887.19;;;-1.31;96.59
66547;BME280;53400;50.364;14.874;2024-01-15T00:22:08;96879.16;;;-1.43;97.62
66547;BME280;53400;50.364;14.874;2024-01-15T00:24:45;96874.13;;;-1.44;97.35
66547;BME280;53400;50.364;14.874;2024-01-15T00:27:13;96879.16;;;-1.43;97.32
66547;BME280;53400;50.364;14.874;2024-01-15T00:29:39;96875.94;;;-1.45;97.66
66547;BME280;53400;50.364;14.874;2024-01-15T00:32:12;96868.81;;;-1.31;96.58
66547;BME280;53400;50.364;14.874;2024-01-15T00:34:40;96856.28;;;-1.35;96.71
66547;BME280;53400;50.364;14.874;2024-01-15T00:37:07;96853.13;;;-1.44;97.15
66547;BME280;53400;50.364;14.874;2024-01-15T00:39:33;96846.25;;;-1.45;97.15
66547;BME280;53400;50.364;14.874;2024-01-15T00:42:04;96836.13;;;-1.42;97.55
66547;BME280;53400;50.364;14.874;2024-01-15T00:44:35;96835.09;;;-1.41;96.81
66547;BME280;53400;50.364;14.874;2024-01-15T00:47:01;96834.19;;;-1.53;97.41
66547;BME280;53400;50.364;14.874;2024-01-15T00:49:27;96832.91;;;-1.44;96.96
66547;BME280;53400;50.364;14.874;2024-01-15T00:51:53;96818.72;;;-1.36;96.75
66547;BME280;53400;50.364;14.874;2024-01-15T00:54:19;96840.22;;;-1.46;97.01
66547;BME280;53400;50.364;14.874;2024-01-15T00:56:48;96837.31;;;-1.38;96.71
66547;BME280;53400;50.364;14.874;2024-01-15T00:59:14;96833.38;;;-1.22;96.26
66547;BME280;53400;50.364;14.874;2024-01-15T01:01:42;96837.78;;;-1.47;97.00
66547;BME280;53400;50.364;14.874;2024-01-15T01:04:09;96826.06;;;-1.45;96.63
66547;BME280;53400;50.364;14.874;2024-01-15T01:06:37;96826.31;;;-1.53;97.18
66547;BME280;53400;50.364;14.874;2024-01-15T01:09:03;96834.59;;;-1.56;97.19
66547;BME280;53400;50.364;14.874;2024-01-15T01:11:31;96822.03;;;-1.47;97.12
66547;BME280;53400;50.364;14.874;2024-01-15T01:14:07;96815.75;;;-1.46;97.54
66547;BME280;53400;50.364;14.874;2024-01-15T01:16:35;96830.09;;;-1.42;96.71
66547;BME280;53400;50.364;14.874;2024-01-15T01:19:06;96819.03;;;-1.51;97.28
66547;BME280;53400;50.364;14.874;2024-01-15T01:21:34;96806.03;;;-1.39;97.46
66547;BME280;53400;50.364;14.874;2024-01-15T01:24:01;96811.41;;;-1.34;96.13
66547;BME280;53400;50.364;14.874;2024-01-15T01:26:31;96819.09;;;-1.32;96.36
66547;BME280;53400;50.364;14.874;2024-01-15T01:28:57;96800.97;;;-1.41;96.99
66547;BME280;53400;50.364;14.874;2024-01-15T01:31:23;96797.34;;;-1.40;96.73
66547;BME280;53400;50.364;14.874;2024-01-15T01:33:50;96792.59;;;-1.56;97.38
66547;BME280;53400;50.364;14.874;2024-01-15T01:36:17;96777.19;;;-1.46;97.35
66547;BME280;53400;50.364;14.874;2024-01-15T01:38:43;96771.72;;;-1.44;96.85
66547;BME280;53400;50.364;14.874;2024-01-15T01:41:11;96770.06;;;-1.39;95.98
66547;BME280;53400;50.364;14.874;2024-01-15T01:43:37;96765.16;;;-1.60;97.28
66547;BME280;53400;50.364;14.874;2024-01-15T01:46:06;96773.16;;;-1.48;96.77
66547;BME280;53400;50.364;14.874;2024-01-15T01:48:35;96778.91;;;-1.58;96.48
66547;BME280;53400;50.364;14.874;2024-01-15T01:51:02;96769.16;;;-1.51;96.98
66547;BME280;53400;50.364;14.874;2024-01-15T01:53:32;96776.03;;;-1.56;96.80
66547;BME280;53400;50.364;14.874;2024-01-15T01:56:04;96779.47;;;-1.56;96.71
66547;BME280;53400;50.364;14.874;2024-01-15T01:58:39;96790.75;;;-1.49;96.22
66547;BME280;53400;50.364;14.874;2024-01-15T02:01:06;96789.41;;;-1.58;96.78
66547;BME280;53400;50.364;14.874;2024-01-15T02:03:32;96779.91;;;-1.59;96.68
66547;BME280;53400;50.364;14.874;2024-01-15T02:06:02;96764.81;;;-1.64;96.57
66547;BME280;53400;50.364;14.874;2024-01-15T02:08:36;96772.81;;;-1.52;96.99
66547;BME280;53400;50.364;14.874;2024-01-15T02:11:09;96765.16;;;-1.60;96.45
66547;BME280;53400;50.364;14.874;2024-01-15T02:13:34;96761.38;;;-1.64;96.62
66547;BME280;53400;50.364;14.874;2024-01-15T02:16:04;96750.47;;;-1.68;96.78
66547;BME280;53400;50.364;14.874;2024-01-15T02:18:40;96755.34;;;-1.71;96.83
66547;BME280;53400;50.364;14.874;2024-01-15T02:21:06;96749.19;;;-1.58;96.51
66547;BME280;53400;50.364;14.874;2024-01-15T02:23:34;96742.81;;;-1.69;96.22
66547;BME280;53400;50.364;14.874;2024-01-15T02:26:01;96751.31;;;-1.67;96.14
66547;BME280;53400;50.364;14.874;2024-01-15T02:28:28;96750.09;;;-1.71;96.67
66547;BME280;53400;50.364;14.874;2024-01-15T02:30:54;96752.72;;;-1.71;96.75
66547;BME280;53400;50.364;14.874;2024-01-15T02:33:20;96751.56;;;-1.75;96.11
66547;BME280;53400;50.364;14.874;2024-01-15T02:35:46;96750.69;;;-1.69;96.12
66547;BME280;53400;50.364;14.874;2024-01-15T02:38:18;96741.00;;;-1.69;95.97
66547;BME280;53400;50.364;14.874;2024-01-15T02:40:47;96737.84;;;-1.52;96.01
66547;BME280;53400;50.364;14.874;2024-01-15T02:43:13;96734.84;;;-1.56;95.44
66547;BME280;53400;50.364;14.874;2024-01-15T02:45:40;96735.28;;;-1.59;95.54
66547;BME280;53400;50.364;14.874;2024-01-15T02:48:08;96734.34;;;-1.71;95.18
66547;BME280;53400;50.364;14.874;2024-01-15T02:50:35;96737.91;;;-1.59;95.76
66547;BME280;53400;50.364;14.874;2024-01-15T02:53:01;96740.16;;;-1.63;95.59
66547;BME280;53400;50.364;14.874;2024-01-15T02:55:27;96743.69;;;-1.75;95.78
66547;BME280;53400;50.364;14.874;2024-01-15T02:57:56;96729.91;;;-1.71;95.20
66547;BME280;53400;50.364;14.874;2024-01-15T03:00:30;96718.97;;;-1.68;95.53
66547;BME280;53400;50.364;14.874;2024-01-15T03:02:56;96728.25;;;-1.65;95.39
66547;BME280;53400;50.364;14.874;2024-01-15T03:05:22;96736.56;;;-1.68;94.99
66547;BME280;53400;50.364;14.874;2024-01-15T03:07:48;96725.50;;;-1.77;95.58
66547;BME280;53400;50.364;14.874;2024-01-15T03:10:20;96710.97;;;-1.73;95.87
66547;BME280;53400;50.364;14.874;2024-01-15T03:12:49;96711.88;;;-1.60;95.31
66547;BME280;53400;50.364;14.874;2024-01-15T03:15:17;96713.72;;;-1.68;94.72
66547;BME280;53400;50.364;14.874;2024-01-15T03:17:44;96724.13;;;-1.79;95.35
66547;BME280;53400;50.364;14.874;2024-01-15T03:20:13;96724.88;;;-1.72;95.01
66547;BME280;53400;50.364;14.874;2024-01-15T03:22:39;96721.88;;;-1.76;95.62
66547;BME280;53400;50.364;14.874;2024-01-15T03:25:06;96734.63;;;-1.79;95.53
66547;BME280;53400;50.364;14.874;2024-01-15T03:27:32;96743.13;;;-1.84;94.72
66547;BME280;53400;50.364;14.874;2024-01-15T03:30:03;96747.19;;;-1.88;95.39
66547;BME280;53400;50.364;14.874;2024-01-15T03:32:33;96741.31;;;-1.83;95.65
66547;BME280;53400;50.364;14.874;2024-01-15T03:35:00;96738.06;;;-1.79;95.68
66547;BME280;53400;50.364;14.874;2024-01-15T03:37:26;96735.47;;;-1.86;95.54
66547;BME280;53400;50.364;14.874;2024-01-15T03:39:52;96733.06;;;-1.87;95.42
66547;BME280;53400;50.364;14.874;2024-01-15T03:42:21;96728.59;;;-1.87;95.69
66547;BME280;53400;50.364;14.874;2024-01-15T03:44:48;96733.91;;;-1.93;96.34
66547;BME280;53400;50.364;14.874;2024-01-15T03:47:14;96727.22;;;-1.89;96.27
66547;BME280;53400;50.364;14.874;2024-01-15T03:49:44;96743.59;;;-1.94;96.06
66547;BME280;53400;50.364;14.874;2024-01-15T03:52:10;96740.94;;;-1.87;96.00
66547;BME280;53400;50.364;14.874;2024-01-15T03:54:39;96740.94;;;-1.87;95.70
66547;BME280;53400;50.364;14.874;2024-01-15T03:57:08;96737.09;;;-1.85;96.23
66547;BME280;53400;50.364;14.874;2024-01-15T03:59:34;96736.53;;;-1.93;96.19
66547;BME280;53400;50.364;14.874;2024-01-15T04:02:05;96742.94;;;-1.82;96.15
66547;BME280;53400;50.364;14.874;2024-01-15T04:04:34;96737.88;;;-1.84;96.41
66547;BME280;53400;50.364;14.874;2024-01-15T04:07:01;96715.53;;;-1.93;96.52
66547;BME280;53400;50.364;14.874;2024-01-15T04:09:27;96726.25;;;-1.95;96.87
66547;BME280;53400;50.364;14.874;2024-01-15T04:11:53;96716.34;;;-1.93;96.57
66547;BME280;53400;50.364;14.874;2024-01-15T04:14:19;96726.69;;;-2.04;96.57
66547;BME280;53400;50.364;14.874;2024-01-15T04:16:46;96725.28;;;-2.07;97.11
66547;BME280;53400;50.364;14.874;2024-01-15T04:19:12;96710.53;;;-2.01;97.50
66547;BME280;53400;50.364;14.874;2024-01-15T04:21:38;96699.91;;;-2.06;96.99
66547;BME280;53400;50.364;14.874;2024-01-15T04:24:12;96698.50;;;-2.09;97.19
66547;BME280;53400;50.364;14.874;2024-01-15T04:26:41;96696.88;;;-2.10;97.38
66547;BME280;53400;50.364;14.874;2024-01-15T04:29:07;96699.50;;;-2.10;97.14
66547;BME280;53400;50.364;14.874;2024-01-15T04:31:33;96693.44;;;-2.11;97.70
66547;BME280;53400;50.364;14.874;2024-01-15T04:34:06;96687.66;;;-2.19;97.50
66547;BME280;53400;50.364;14.874;2024-01-15T04:36:38;96693.50;;;-2.17;97.47
66547;BME280;53400;50.364;14.874;2024-01-15T04:39:04;96685.63;;;-2.17;97.31
66547;BME280;53400;50.364;14.874;2024-01-15T04:41:32;96698.50;;;-2.09;96.99
66547;BME280;53400;50.364;14.874;2024-01-15T04:44:04;96700.94;;;-2.14;96.57
66547;BME280;53400;50.364;14.874;2024-01-15T04:46:33;96697.53;;;-2.15;97.24
66547;BME280;53400;50.364;14.874;2024-01-15T04:48:59;96698.28;;;-2.08;96.76
66547;BME280;53400;50.364;14.874;2024-01-15T04:51:25;96694.59;;;-2.00;95.90
66547;BME280;53400;50.364;14.874;2024-01-15T04:53:51;96700.69;;;-2.06;96.04
66547;BME280;53400;50.364;14.874;2024-01-15T04:56:23;96702.09;;;-2.03;96.54
66547;BME280;53400;50.364;14.874;2024-01-15T04:58:51;96703.88;;;-1.97;96.00
66547;BME280;53400;50.364;14.874;2024-01-15T05:01:17;96703.31;;;-2.06;96.19
66547;BME280;53400;50.364;14.874;2024-01-15T05:03:43;96704.31;;;-2.07;96.01
66547;BME280;53400;50.364;14.874;2024-01-15T05:06:19;96713.34;;;-1.96;95.96
66547;BME280;53400;50.364;14.874;2024-01-15T05:08:50;96701.69;;;-2.07;96.46
66547;BME280;53400;50.364;14.874;2024-01-15T05:11:16;96709.91;;;-1.97;95.99
66547;BME280;53400;50.364;14.874;2024-01-15T05:13:53;96714.59;;;-2.05;97.46
66547;BME280;53400;50.364;14.874;2024-01-15T05:16:22;96716.44;;;-2.06;97.65
66547;BME280;53400;50.364;14.874;2024-01-15T05:18:51;96719.53;;;-2.16;98.35
66547;BME280;53400;50.364;14.874;2024-01-15T05:21:17;96723.09;;;-2.10;98.10
66547;BME280;53400;50.364;14.874;2024-01-15T05:23:43;96720.09;;;-2.14;97.99
66547;BME280;53400;50.364;14.874;2024-01-15T05:26:11;96721.31;;;-2.10;98.00
66547;BME280;53400;50.364;14.874;2024-01-15T05:28:38;96729.50;;;-1.99;97.15
66547;BME280;53400;50.364;14.874;2024-01-15T05:31:11;96726.94;;;-2.06;95.99
66547;BME280;53400;50.364;14.874;2024-01-15T05:33:37;96735.78;;;-2.00;96.36
66547;BME280;53400;50.364;14.874;2024-01-15T05:36:05;96732.53;;;-2.02;95.80
66547;BME280;53400;50.364;14.874;2024-01-15T05:38:34;96745.44;;;-2.01;95.88
66547;BME280;53400;50.364;14.874;2024-01-15T05:41:00;96739.94;;;-1.93;95.69
66547;BME280;53400;50.364;14.874;2024-01-15T05:43:26;96744.19;;;-1.92;94.47
66547;BME280;53400;50.364;14.874;2024-01-15T05:45:52;96765.47;;;-1.75;94.14
66547;BME280;53400;50.364;14.874;2024-01-15T05:48:19;96758.03;;;-1.78;93.21
66547;BME280;53400;50.364;14.874;2024-01-15T05:50:45;96745.94;;;-1.79;92.99
66547;BME280;53400;50.364;14.874;2024-01-15T05:53:12;96752.44;;;-1.88;93.32
66547;BME280;53400;50.364;14.874;2024-01-15T05:55:38;96746.28;;;-2.00;93.15
66547;BME280;53400;50.364;14.874;2024-01-15T05:58:09;96743.78;;;-1.89;91.61
66547;BME280;53400;50.364;14.874;2024-01-15T06:00:35;96733.94;;;-2.00;92.75
66547;BME280;53400;50.364;14.874;2024-01-15T06:03:04;96750.47;;;-1.68;91.92
66547;BME280;53400;50.364;14.874;2024-01-15T06:05:32;96736.94;;;-1.96;91.71
66547;BME280;53400;50.364;14.874;2024-01-15T06:08:05;96739.09;;;-2.18;91.90
66547;BME280;53400;50.364;14.874;2024-01-15T06:10:37;96741.06;;;-2.14;92.15
66547;BME280;53400;50.364;14.874;2024-01-15T06:13:03;96757.22;;;-2.17;91.16
66547;BME280;53400;50.364;14.874;2024-01-15T06:15:29;96752.41;;;-2.20;91.58
66547;BME280;53400;50.364;14.874;2024-01-15T06:17:55;96763.28;;;-2.16;91.26
66547;BME280;53400;50.364;14.874;2024-01-15T06:20:22;96748.50;;;-2.42;92.29
66547;BME280;53400;50.364;14.874;2024-01-15T06:22:49;96761.34;;;-2.27;91.89
66547;BME280;53400;50.364;14.874;2024-01-15T06:25:19;96768.69;;;-2.49;92.25
66547;BME280;53400;50.364;14.874;2024-01-15T06:27:45;96763.63;;;-2.44;92.92
66547;BME280;53400;50.364;14.874;2024-01-15T06:30:12;96755.84;;;-2.64;93.90
66547;BME280;53400;50.364;14.874;2024-01-15T06:32:39;96750.97;;;-2.61;93.90
66547;BME280;53400;50.364;14.874;2024-01-15T06:35:06;96760.84;;;-2.63;93.51
66547;BME280;53400;50.364;14.874;2024-01-15T06:37:32;96757.22;;;-2.55;93.51
66547;BME280;53400;50.364;14.874;2024-01-15T06:40:20;96767.50;;;-2.60;93.83
66547;BME280;53400;50.364;14.874;2024-01-15T06:42:50;96764.91;;;-2.67;93.37
66547;BME280;53400;50.364;14.874;2024-01-15T06:45:16;96773.34;;;-2.65;93.86
66547;BME280;53400;50.364;14.874;2024-01-15T06:48:14;96774.38;;;-2.66;93.67
66547;BME280;53400;50.364;14.874;2024-01-15T06:50:31;96770.16;;;-2.67;94.06
66547;BME280;53400;50.364;14.874;2024-01-15T06:52:58;96778.81;;;-2.66;93.72
66547;BME280;53400;50.364;14.874;2024-01-15T06:55:25;96787.47;;;-2.52;93.47
66547;BME280;53400;50.364;14.874;2024-01-15T06:57:52;96772.88;;;-1.97;98.94
66547;BME280;53400;50.364;14.874;2024-01-15T07:00:18;96775.91;;;-2.45;93.27
66547;BME280;53400;50.364;14.874;2024-01-15T07:02:45;96788.66;;;-2.55;93.58
66547;BME280;53400;50.364;14.874;2024-01-15T07:05:11;96780.59;;;-2.60;93.14
66547;BME280;53400;50.364;14.874;2024-01-15T07:07:38;96773.53;;;-2.60;93.45
66547;BME280;53400;50.364;14.874;2024-01-15T07:10:08;96788.28;;;-2.65;93.36
66547;BME280;53400;50.364;14.874;2024-01-15T07:12:37;96782.66;;;-2.69;93.34
66547;BME280;53400;50.364;14.874;2024-01-15T07:15:03;96798.75;;;-2.65;92.82
66547;BME280;53400;50.364;14.874;2024-01-15T07:17:32;96803.00;;;-2.71;93.33
66547;BME280;53400;50.364;14.874;2024-01-15T07:20:05;96801.97;;;-2.63;92.82
66547;BME280;53400;50.364;14.874;2024-01-15T07:22:33;96793.75;;;-2.67;92.80
66547;BME280;53400;50.364;14.874;2024-01-15T07:24:59;96795.56;;;-2.81;93.72
66547;BME280;53400;50.364;14.874;2024-01-15T07:27:26;96791.53;;;-2.77;93.73
66547;BME280;53400;50.364;14.874;2024-01-15T07:29:53;96776.22;;;-2.73;93.85
66547;BME280;53400;50.364;14.874;2024-01-15T07:32:19;96787.69;;;-2.67;93.50
66547;BME280;53400;50.364;14.874;2024-01-15T07:34:46;96793.31;;;-2.57;93.36
66547;BME280;53400;50.364;14.874;2024-01-15T07:37:15;96797.50;;;-2.43;92.51
66547;BME280;53400;50.364;14.874;2024-01-15T07:39:42;96798.28;;;-2.36;91.80
66547;BME280;53400;50.364;14.874;2024-01-15T07:42:08;96793.22;;;-2.31;91.68
66547;BME280;53400;50.364;14.874;2024-01-15T07:44:34;96803.81;;;-2.12;91.18
66547;BME280;53400;50.364;14.874;2024-01-15T07:47:01;96785.47;;;-2.12;91.02
66547;BME280;53400;50.364;14.874;2024-01-15T07:49:27;96798.78;;;-2.14;90.43
66547;BME280;53400;50.364;14.874;2024-01-15T07:51:53;96798.72;;;-2.00;90.18
66547;BME280;53400;50.364;14.874;2024-01-15T07:54:22;96783.59;;;-2.05;89.19
66547;BME280;53400;50.364;14.874;2024-01-15T07:56:56;96778.81;;;-2.15;89.23
66547;BME280;53400;50.364;14.874;2024-01-15T07:59:23;96793.13;;;-2.11;89.12
66547;BME280;53400;50.364;14.874;2024-01-15T08:01:49;96764.59;;;-1.94;88.34
66547;BME280;53400;50.364;14.874;2024-01-15T08:04:17;96789.00;;;-1.93;87.81
66547;BME280;53400;50.364;14.874;2024-01-15T08:06:44;96778.84;;;-1.83;87.73
66547;BME280;53400;50.364;14.874;2024-01-15T08:09:10;96767.16;;;-1.87;87.16
66547;BME280;53400;50.364;14.874;2024-01-15T08:11:39;96775.41;;;-1.83;87.35
66547;BME280;53400;50.364;14.874;2024-01-15T08:14:05;96767.81;;;-1.92;87.91
66547;BME280;53400;50.364;14.874;2024-01-15T08:16:32;96774.63;;;-1.84;88.34
66547;BME280;53400;50.364;14.874;2024-01-15T08:18:58;96767.97;;;-1.87;87.60
66547;BME280;53400;50.364;14.874;2024-01-15T08:21:26;96780.94;;;-1.92;88.04
66547;BME280;53400;50.364;14.874;2024-01-15T08:23:56;96765.19;;;-1.92;88.05
66547;BME280;53400;50.364;14.874;2024-01-15T08:26:22;96775.22;;;-1.82;87.56
66547;BME280;53400;50.364;14.874;2024-01-15T08:28:48;96770.41;;;-1.85;87.21
66547;BME280;53400;50.364;14.874;2024-01-15T08:31:15;96776.63;;;-1.86;87.17
66547;BME280;53400;50.364;14.874;2024-01-15T08:33:41;96756.66;;;-1.87;87.16
66547;BME280;53400;50.364;14.874;2024-01-15T08:36:09;96772.16;;;-1.79;87.45
66547;BME280;53400;50.364;14.874;2024-01-15T08:38:41;96769.16;;;-1.82;87.02
66547;BME280;53400;50.364;14.874;2024-01-15T08:41:07;96780.00;;;-1.72;87.18
66547;BME280;53400;50.364;14.874;2024-01-15T08:43:34;96765.09;;;-1.78;87.29
66547;BME280;53400;50.364;14.874;2024-01-15T08:46:12;96770.09;;;-1.70;87.24
66547;BME280;53400;50.364;14.874;2024-01-15T08:48:38;96768.66;;;-1.66;86.45
66547;BME280;53400;50.364;14.874;2024-01-15T08:51:06;96764.56;;;-1.62;86.01
66547;BME280;53400;50.364;14.874;2024-01-15T08:53:33;96777.28;;;-1.59;85.72
66547;BME280;53400;50.364;14.874;2024-01-15T08:56:08;96775.25;;;-1.57;85.96
66547;BME280;53400;50.364;14.874;2024-01-15T08:58:34;96773.00;;;-1.53;85.63
66547;BME280;53400;50.364;14.874;2024-01-15T09:01:00;96777.88;;;-1.57;85.21
66547;BME280;53400;50.364;14.874;2024-01-15T09:03:26;96764.31;;;-1.54;85.13
66547;BME280;53400;50.364;14.874;2024-01-15T09:05:54;96776.16;;;-1.45;84.77
66547;BME280;53400;50.364;14.874;2024-01-15T09:08:21;96765.00;;;-1.40;84.08
66547;BME280;53400;50.364;14.874;2024-01-15T09:10:53;96777.03;;;-1.51;85.04
66547;BME280;53400;50.364;14.874;2024-01-15T09:13:21;96772.41;;;-1.55;83.96
66547;BME280;53400;50.364;14.874;2024-01-15T09:15:47;96778.19;;;-1.47;83.87
66547;BME280;53400;50.364;14.874;2024-01-15T09:18:13;96768.28;;;-1.45;83.40
66547;BME280;53400;50.364;14.874;2024-01-15T09:20:48;96773.72;;;-1.40;83.54
66547;BME280;53400;50.364;14.874;2024-01-15T09:23:14;96786.00;;;-1.33;82.69
66547;BME280;53400;50.364;14.874;2024-01-15T09:25:40;96780.75;;;-1.40;82.87
66547;BME280;53400;50.364;14.874;2024-01-15T09:28:11;96791.06;;;-1.39;82.65
66547;BME280;53400;50.364;14.874;2024-01-15T09:30:42;96789.84;;;-1.36;83.31
66547;BME280;53400;50.364;14.874;2024-01-15T09:33:08;96777.94;;;-1.39;83.42
66547;BME280;53400;50.364;14.874;2024-01-15T09:35:34;96772.47;;;-1.37;82.71
66547;BME280;53400;50.364;14.874;2024-01-15T09:38:02;96752.22;;;-1.30;82.52
66547;BME280;53400;50.364;14.874;2024-01-15T09:40:43;96788.81;;;-1.35;82.78
66547;BME280;53400;50.364;14.874;2024-01-15T09:43:12;96764.69;;;-1.25;83.39
66547;BME280;53400;50.364;14.874;2024-01-15T09:45:39;96781.34;;;-1.13;82.02
66547;BME280;53400;50.364;14.874;2024-01-15T09:48:11;96767.31;;;-1.25;82.38
66547;BME280;53400;50.364;14.874;2024-01-15T09:50:44;96760.19;;;-1.18;81.86
66547;BME280;53400;50.364;14.874;2024-01-15T09:53:10;96773.44;;;-1.06;81.20
66547;BME280;53400;50.364;14.874;2024-01-15T09:55:37;96772.69;;;-1.13;81.96
66547;BME280;53400;50.364;14.874;2024-01-15T09:58:08;96771.19;;;-1.03;81.70
66547;BME280;53400;50.364;14.874;2024-01-15T10:00:38;96760.38;;;-0.95;80.63
66547;BME280;53400;50.364;14.874;2024-01-15T10:03:08;96751.75;;;-1.02;80.72
66547;BME280;53400;50.364;14.874;2024-01-15T10:05:37;96751.81;;;-1.08;80.91
66547;BME280;53400;50.364;14.874;2024-01-15T10:08:07;96741.84;;;-1.00;80.41
66547;BME280;53400;50.364;14.874;2024-01-15T10:10:36;96740.09;;;-0.87;79.84
66547;BME280;53400;50.364;14.874;2024-01-15T10:13:04;96735.03;;;-0.89;79.47
66547;BME280;53400;50.364;14.874;2024-01-15T10:15:33;96726.72;;;-0.86;79.30
66547;BME280;53400;50.364;14.874;2024-01-15T10:18:03;96736.44;;;-0.86;79.22
66547;BME280;53400;50.364;14.874;2024-01-15T10:20:35;96724.47;;;-0.82;80.08
66547;BME280;53400;50.364;14.874;2024-01-15T10:23:01;96723.97;;;-0.73;78.95
66547;BME280;53400;50.364;14.874;2024-01-15T10:25:29;96709.13;;;-0.85;78.42
66547;BME280;53400;50.364;14.874;2024-01-15T10:28:03;96713.75;;;-0.81;78.68
66547;BME280;53400;50.364;14.874;2024-01-15T10:30:32;96693.59;;;-0.87;78.68
66547;BME280;53400;50.364;14.874;2024-01-15T10:33:00;96695.19;;;-0.86;78.89
66547;BME280;53400;50.364;14.874;2024-01-15T10:35:30;96712.34;;;-0.83;79.06
66547;BME280;53400;50.364;14.874;2024-01-15T10:38:13;96722.94;;;-0.90;78.84
66547;BME280;53400;50.364;14.874;2024-01-15T10:40:41;96718.72;;;-0.91;79.36
66547;BME280;53400;50.364;14.874;2024-01-15T10:43:08;96708.78;;;-0.89;78.85
66547;BME280;53400;50.364;14.874;2024-01-15T10:45:34;96703.88;;;-0.85;78.53
66547;BME280;53400;50.364;14.874;2024-01-15T10:48:06;96699.00;;;-0.82;79.13
66547;BME280;53400;50.364;14.874;2024-01-15T10:50:36;96703.00;;;-0.79;77.82
66547;BME280;53400;50.364;14.874;2024-01-15T10:53:06;96707.97;;;-0.89;78.86
66547;BME280;53400;50.364;14.874;2024-01-15T10:55:35;96706.06;;;-0.82;78.32
66547;BME280;53400;50.364;14.874;2024-01-15T10:58:06;96710.59;;;-0.71;77.89
66547;BME280;53400;50.364;14.874;2024-01-15T11:00:34;96712.50;;;-0.78;78.05
66547;BME280;53400;50.364;14.874;2024-01-15T11:03:01;96705.34;;;-0.71;78.22
66547;BME280;53400;50.364;14.874;2024-01-15T11:05:28;96711.72;;;-0.79;79.00
66547;BME280;53400;50.364;14.874;2024-01-15T11:07:55;96704.63;;;-0.78;79.20
66547;BME280;53400;50.364;14.874;2024-01-15T11:10:44;96707.88;;;-0.64;78.13
66547;BME280;53400;50.364;14.874;2024-01-15T11:13:15;96707.31;;;-0.66;78.64
66547;BME280;53400;50.364;14.874;2024-01-15T11:15:59;96728.47;;;-0.61;77.83
66547;BME280;53400;50.364;14.874;2024-01-15T11:18:36;96709.50;;;-0.45;76.95
66547;BME280;53400;50.364;14.874;2024-01-15T11:21:23;96712.28;;;-0.28;76.83
66547;BME280;53400;50.364;14.874;2024-01-15T11:23:53;96715.59;;;-0.33;77.35
66547;BME280;53400;50.364;14.874;2024-01-15T11:26:43;96709.81;;;-0.23;77.10
66547;BME280;53400;50.364;14.874;2024-01-15T11:29:29;96714.66;;;-0.38;77.61
66547;BME280;53400;50.364;14.874;2024-01-15T11:32:03;96710.03;;;-0.55;77.91
66547;BME280;53400;50.364;14.874;2024-01-15T11:34:56;96713.00;;;-0.51;78.14
66547;BME280;53400;50.364;14.874;2024-01-15T11:37:26;96707.75;;;-0.51;78.17
66547;BME280;53400;50.364;14.874;2024-01-15T11:39:53;96696.53;;;-0.47;78.32
66547;BME280;53400;50.364;14.874;2024-01-15T11:42:22;96714.75;;;-0.45;77.83
66547;BME280;53400;50.364;14.874;2024-01-15T11:45:00;96710.47;;;-0.58;77.55
66547;BME280;53400;50.364;14.874;2024-01-15T11:47:56;96709.19;;;-0.55;78.49
66547;BME280;53400;50.364;14.874;2024-01-15T11:50:31;96708.63;;;-0.57;78.11
66547;BME280;53400;50.364;14.874;2024-01-15T11:53:01;96704.09;;;-0.50;78.05
66547;BME280;53400;50.364;14.874;2024-01-15T11:55:34;96712.56;;;-0.48;78.58
66547;BME280;53400;50.364;14.874;2024-01-15T11:58:09;96711.28;;;-0.27;78.16
66547;BME280;53400;50.364;14.874;2024-01-15T12:00:39;96706.19;;;-0.10;77.79
66547;BME280;53400;50.364;14.874;2024-01-15T12:03:06;96702.66;;;-0.04;77.40
66547;BME280;53400;50.364;14.874;2024-01-15T12:05:32;96698.03;;;0.10;76.88
66547;BME280;53400;50.364;14.874;2024-01-15T12:08:07;96691.25;;;0.02;76.31
66547;BME280;53400;50.364;14.874;2024-01-15T12:10:40;96698.47;;;0.07;75.94
66547;BME280;53400;50.364;14.874;2024-01-15T12:13:12;96687.31;;;-0.07;76.63
66547;BME280;53400;50.364;14.874;2024-01-15T12:15:39;96690.88;;;-0.02;77.13
66547;BME280;53400;50.364;14.874;2024-01-15T12:18:10;96687.63;;;-0.15;77.39
66547;BME280;53400;50.364;14.874;2024-01-15T12:20:39;96685.81;;;-0.15;77.39
66547;BME280;53400;50.364;14.874;2024-01-15T12:23:06;96680.31;;;-0.13;77.49
66547;BME280;53400;50.364;14.874;2024-01-15T12:25:33;96678.81;;;0.09;77.12
66547;BME280;53400;50.364;14.874;2024-01-15T12:28:01;96682.78;;;0.12;75.99
66547;BME280;53400;50.364;14.874;2024-01-15T12:30:34;96679.31;;;-0.01;76.32
66547;BME280;53400;50.364;14.874;2024-01-15T12:33:02;96683.69;;;0.06;76.57
66547;BME280;53400;50.364;14.874;2024-01-15T12:35:29;96687.81;;;0.02;76.48
66547;BME280;53400;50.364;14.874;2024-01-15T12:37:56;96681.66;;;0.08;76.09
66547;BME280;53400;50.364;14.874;2024-01-15T12:40:23;96680.53;;;0.15;76.08
66547;BME280;53400;50.364;14.874;2024-01-15T12:42:50;96683.78;;;-0.01;75.56
66547;BME280;53400;50.364;14.874;2024-01-15T12:45:16;96691.25;;;0.02;76.35
66547;BME280;53400;50.364;14.874;2024-01-15T12:47:45;96680.66;;;-0.10;75.69
66547;BME280;53400;50.364;14.874;2024-01-15T12:50:13;96692.38;;;-0.06;76.31
66547;BME280;53400;50.364;14.874;2024-01-15T12:52:40;96695.53;;;0.27;75.27
66547;BME280;53400;50.364;14.874;2024-01-15T12:55:08;96699.56;;;0.41;74.92
66547;BME280;53400;50.364;14.874;2024-01-15T12:57:35;96682.75;;;0.54;74.13
66547;BME280;53400;50.364;14.874;2024-01-15T13:00:06;96681.16;;;0.53;74.51